SEA Airport (Seattle-Tacoma Intl) Information

FAA: SEA - ICAO: KSEA

SEA Airport Location

State Washington
County King
City Seattle
SEA Airport is 10 miles south of Seattle, WA.
Latitude 47-26-59.6000N
Longitude 122-18-42.4000W
Elevation 432ft

KSEA Airport METARs

METAR KSEA 302253Z 33006KT 10SM CLR 21/11 A3011 RMK AO2 SLP203 T02060111
Altimeter 30.11"
Temperature 20.6°C (69.1°F)
Wind 330° at 6KT
Clouds Skies are clear.
Visibility 10.0mi
Time observed: 2022-09-30T22:53:00Z

SEA Airport Details

Status Operational
Activation January 1944
Ownership Public
Usage Public
Chart SEATTLE
ATC on-site Yes
Beacon schedule sunset-sunrise
Beacon color clear green

SEA Airport Contacts

Owner PORT OF SEATTLE
Owner address BOX 1209, SEATTLE, WA 98111
Owner phone 206-787-3000
Manager BRIAN SHANAMAN
Manager address 903 S. ADAMS, RITZVILLE, WA 99169
Manager phone (509) 318-3165

SEA Airport (Seattle-Tacoma Intl) Radio Frequencies

SEA (Airport) Radio Frequencies

UNICOM 122.95
Common traffic advisory frequency (CTAF) N/A